Time;durP1;ratioP1;P1;durP2;ratioP2;P2;SDS_P1;SDS_P2;PMS_P1;PMS_P2;Temp;Humidity;BMP_temperature;BMP_pressure;BME280_temperature;BME280_humidity;BME280_pressure;Samples;Min_cycle;Max_cycle;Signal;HPM_P1;HPM_P2
2021/10/11 00:00:20;;;;;;;21.63;17.27;;;;;;;6.65;94.33;101873.56;681778;28;1192;-54
2021/10/11 00:00:40;;;;;;;23.33;18.20;;;;;;;6.60;94.83;101872.53;680859;28;1246;-52
2021/10/11 00:01:01;;;;;;;22.50;18.02;;;;;;;6.57;94.99;101869.84;680592;28;4483;-52
2021/10/11 00:01:22;;;;;;;21.17;17.70;;;;;;;6.55;94.91;101876.69;678541;29;1185;-54
2021/10/11 00:01:42;;;;;;;21.43;17.37;;;;;;;6.54;94.89;101867.16;676204;29;1073;-51
2021/10/11 00:02:03;;;;;;;21.42;17.33;;;;;;;6.53;95.17;101878.38;676443;29;1002;-52
2021/10/11 00:02:23;;;;;;;21.30;17.50;;;;;;;6.51;95.22;101872.22;676975;29;1157;-51
2021/10/11 00:02:43;;;;;;;22.52;17.33;;;;;;;6.48;95.05;101868.72;678761;28;3218;-52
2021/10/11 00:03:04;;;;;;;22.00;16.90;;;;;;;6.47;94.93;101869.53;678938;29;3736;-53
2021/10/11 00:03:24;;;;;;;21.70;17.73;;;;;;;6.47;94.74;101874.75;679316;29;1053;-55
2021/10/11 00:03:44;;;;;;;21.17;17.10;;;;;;;6.48;94.29;101868.72;679150;28;1384;-55
2021/10/11 00:04:05;;;;;;;19.93;16.03;;;;;;;6.53;93.58;101874.06;681422;28;4439;-51
2021/10/11 00:04:26;;;;;;;19.60;16.02;;;;;;;6.62;92.92;101873.47;682298;28;1143;-51
2021/10/11 00:04:46;;;;;;;19.98;15.77;;;;;;;6.73;93.22;101872.09;682386;28;1230;-55
2021/10/11 00:05:07;;;;;;;19.77;15.60;;;;;;;6.80;92.10;101871.44;682399;28;1476;-54
2021/10/11 00:05:28;;;;;;;18.92;15.40;;;;;;;6.85;91.70;101875.88;682145;28;1065;-55
2021/10/11 00:05:48;;;;;;;19.03;15.30;;;;;;;6.88;91.20;101874.25;681975;28;1880;-55
2021/10/11 00:06:09;;;;;;;18.33;14.98;;;;;;;6.87;91.55;101871.59;684600;28;4031;-53
2021/10/11 00:06:29;;;;;;;19.50;15.67;;;;;;;6.84;92.86;101869.81;684497;28;1424;-54
2021/10/11 00:06:49;;;;;;;20.33;16.47;;;;;;;6.80;93.20;101878.34;683618;28;4687;-53
2021/10/11 00:07:10;;;;;;;19.08;16.08;;;;;;;6.76;93.06;101871.28;684792;28;1069;-53
2021/10/11 00:07:30;;;;;;;20.70;16.20;;;;;;;6.72;93.20;101872.03;684178;28;1136;-54
2021/10/11 00:07:51;;;;;;;19.35;15.98;;;;;;;6.67;93.31;101871.88;684368;28;1167;-53
2021/10/11 00:08:11;;;;;;;18.43;15.50;;;;;;;6.61;93.69;101871.69;681683;28;1668;-56
2021/10/11 00:08:31;;;;;;;19.30;15.80;;;;;;;6.54;93.42;101870.63;681927;28;1112;-51
2021/10/11 00:08:51;;;;;;;18.73;16.10;;;;;;;6.48;93.87;101875.66;681965;28;1659;-55
2021/10/11 00:09:12;;;;;;;19.90;16.57;;;;;;;6.43;94.71;101875.47;681903;28;4187;-52
2021/10/11 00:09:32;;;;;;;19.58;16.25;;;;;;;6.41;94.82;101869.38;681844;28;999;-55
2021/10/11 00:09:53;;;;;;;20.07;16.57;;;;;;;6.40;95.21;101871.91;681372;28;4530;-56
2021/10/11 00:10:19;;;;;;;21.65;17.08;;;;;;;6.38;94.86;101874.44;682627;28;1456;-53
2021/10/11 00:10:40;;;;;;;21.65;16.92;;;;;;;6.34;95.57;101863.91;682514;28;1532;-55
2021/10/11 00:11:00;;;;;;;20.87;17.10;;;;;;;6.30;95.19;101870.75;682082;28;1664;-53
2021/10/11 00:11:21;;;;;;;19.50;16.90;;;;;;;6.33;94.70;101869.94;681752;28;986;-53
2021/10/11 00:11:41;;;;;;;18.07;15.67;;;;;;;6.41;93.84;101868.47;681180;28;1105;-55
2021/10/11 00:12:03;;;;;;;17.80;15.50;;;;;;;6.54;92.73;101868.03;678884;28;3502;-56
2021/10/11 00:12:24;;;;;;;17.20;14.80;;;;;;;6.65;91.93;101868.38;679073;29;2376;-54
2021/10/11 00:12:48;;;;;;;17.85;15.02;;;;;;;6.69;92.74;101865.03;678830;28;1161;-52
2021/10/11 00:13:08;;;;;;;19.25;15.50;;;;;;;6.68;92.60;101863.25;682022;28;4468;-55
2021/10/11 00:13:28;;;;;;;18.63;15.10;;;;;;;6.70;92.66;101865.91;684554;28;1275;-52
2021/10/11 00:13:49;;;;;;;17.90;14.80;;;;;;;6.67;92.40;101869.28;683881;28;1021;-53
2021/10/11 00:14:09;;;;;;;19.95;15.68;;;;;;;6.63;93.31;101864.81;684257;28;1564;-56
2021/10/11 00:14:30;;;;;;;21.77;15.70;;;;;;;6.63;92.91;101865.72;684079;28;1292;-53
2021/10/11 00:14:52;;;;;;;20.60;15.65;;;;;;;6.59;93.94;101865.56;681425;28;1064;-55
2021/10/11 00:15:12;;;;;;;19.40;15.73;;;;;;;6.51;94.00;101874.84;682330;28;1956;-52
2021/10/11 00:15:33;;;;;;;18.77;15.83;;;;;;;6.42;93.82;101865.91;685402;28;3442;-54
2021/10/11 00:15:53;;;;;;;18.15;15.40;;;;;;;6.37;93.76;101864.91;682734;28;4354;-53
2021/10/11 00:16:16;;;;;;;19.80;15.73;;;;;;;6.32;93.71;101863.00;679421;28;1404;-52
2021/10/11 00:16:37;;;;;;;19.42;15.73;;;;;;;6.26;94.90;101868.88;679430;28;2859;-52
2021/10/11 00:16:57;;;;;;;18.37;15.80;;;;;;;6.21;94.53;101871.31;677662;29;980;-51
2021/10/11 00:17:18;;;;;;;19.27;15.63;;;;;;;6.20;93.94;101861.75;679316;29;963;-51
2021/10/11 00:17:38;;;;;;;18.50;15.53;;;;;;;6.24;93.50;101860.16;674163;29;1396;-51
2021/10/11 00:17:59;;;;;;;17.88;14.75;;;;;;;6.27;94.35;101868.94;676013;29;1086;-51
2021/10/11 00:18:19;;;;;;;19.67;15.77;;;;;;;6.27;94.56;101868.03;676822;29;2064;-56
2021/10/11 00:18:40;;;;;;;20.52;16.20;;;;;;;6.24;94.86;101862.75;675522;29;3765;-52
2021/10/11 00:19:03;;;;;;;20.00;16.20;;;;;;;6.21;95.15;101866.13;679443;28;4391;-51
2021/10/11 00:19:23;;;;;;;21.20;16.17;;;;;;;6.20;94.84;101868.66;681661;28;1228;-55
2021/10/11 00:19:43;;;;;;;21.40;16.13;;;;;;;6.19;95.33;101866.91;682234;28;985;-56
2021/10/11 00:20:05;;;;;;;20.23;16.43;;;;;;;6.18;95.51;101862.56;683143;28;1120;-55
2021/10/11 00:20:25;;;;;;;19.73;15.82;;;;;;;6.23;95.01;101863.56;682010;28;1096;-54
2021/10/11 00:20:46;;;;;;;19.93;15.50;;;;;;;6.25;94.68;101870.56;681139;28;921;-54
2021/10/11 00:21:06;;;;;;;20.23;15.02;;;;;;;6.29;94.67;101863.78;681849;28;1125;-51
2021/10/11 00:21:26;;;;;;;18.50;14.80;;;;;;;6.32;94.27;101863.88;682092;28;4380;-54
2021/10/11 00:21:47;;;;;;;20.42;15.45;;;;;;;6.33;94.04;101865.66;681686;28;3778;-51
2021/10/11 00:22:07;;;;;;;19.37;14.53;;;;;;;6.38;93.26;101863.19;681714;28;4448;-53
2021/10/11 00:22:27;;;;;;;17.97;14.53;;;;;;;6.45;92.92;101868.63;682519;28;1460;-54
2021/10/11 00:22:48;;;;;;;16.95;14.23;;;;;;;6.55;92.27;101866.31;682347;28;958;-52
2021/10/11 00:23:10;;;;;;;16.58;13.85;;;;;;;6.61;91.63;101867.38;683351;28;1377;-51
2021/10/11 00:23:30;;;;;;;16.05;14.35;;;;;;;6.67;90.75;101866.69;684860;28;1038;-53
2021/10/11 00:23:50;;;;;;;16.92;13.73;;;;;;;6.73;90.67;101865.97;683722;28;1029;-56
2021/10/11 00:24:11;;;;;;;16.17;13.47;;;;;;;6.74;91.07;101865.16;684490;28;1217;-56
2021/10/11 00:24:34;;;;;;;17.30;14.40;;;;;;;6.72;91.18;101867.72;684305;28;3513;-51
2021/10/11 00:24:54;;;;;;;17.48;14.52;;;;;;;6.67;92.16;101874.47;683837;28;4753;-55
2021/10/11 00:25:15;;;;;;;17.90;14.83;;;;;;;6.62;92.67;101870.88;684248;28;1444;-53
2021/10/11 00:25:37;;;;;;;20.10;15.32;;;;;;;6.59;92.60;101871.66;684331;28;1231;-55
2021/10/11 00:25:58;;;;;;;17.70;14.95;;;;;;;6.54;92.75;101870.63;681895;28;1275;-54
2021/10/11 00:26:18;;;;;;;18.03;14.47;;;;;;;6.52;92.59;101868.81;682100;28;1083;-54
2021/10/11 00:26:39;;;;;;;18.50;14.47;;;;;;;6.55;92.09;101874.09;681768;28;1084;-54
2021/10/11 00:26:59;;;;;;;16.73;14.50;;;;;;;6.58;92.28;101867.28;682534;28;1219;-54
2021/10/11 00:27:19;;;;;;;17.87;14.90;;;;;;;6.55;92.49;101876.69;681489;28;1293;-54
2021/10/11 00:27:40;;;;;;;18.90;15.13;;;;;;;6.52;93.32;101871.41;681471;28;3230;-55
2021/10/11 00:28:00;;;;;;;19.53;15.67;;;;;;;6.45;93.60;101870.31;682903;28;4528;-55
2021/10/11 00:28:20;;;;;;;18.08;15.57;;;;;;;6.37;93.53;101872.69;681976;28;1270;-54
2021/10/11 00:28:41;;;;;;;18.03;15.37;;;;;;;6.32;93.78;101874.25;681613;28;1252;-55
2021/10/11 00:29:01;;;;;;;18.57;15.40;;;;;;;6.27;93.97;101870.63;681097;28;1151;-52
2021/10/11 00:29:22;;;;;;;18.23;15.30;;;;;;;6.25;93.81;101878.38;682307;28;1081;-54
2021/10/11 00:29:43;;;;;;;18.05;15.05;;;;;;;6.29;93.72;101868.97;681874;28;1555;-53
2021/10/11 00:30:07;;;;;;;18.48;15.00;;;;;;;6.33;93.27;101870.84;679360;28;1040;-52
2021/10/11 00:30:27;;;;;;;17.42;14.40;;;;;;;6.38;92.50;101874.44;681867;28;1250;-52
2021/10/11 00:30:48;;;;;;;17.73;14.60;;;;;;;6.43;92.88;101882.41;680921;28;2091;-56
2021/10/11 00:31:10;;;;;;;17.92;14.77;;;;;;;6.41;92.69;101878.84;681705;28;4926;-52
2021/10/11 00:31:30;;;;;;;17.80;14.70;;;;;;;6.38;92.84;101874.44;680399;28;1478;-54
2021/10/11 00:31:51;;;;;;;17.25;14.18;;;;;;;6.39;93.27;101877.94;680801;28;1029;-55
2021/10/11 00:32:11;;;;;;;18.30;14.37;;;;;;;6.41;93.05;101882.34;681476;28;949;-55
2021/10/11 00:32:32;;;;;;;18.93;14.40;;;;;;;6.40;93.51;101878.00;682220;28;1247;-54
2021/10/11 00:32:53;;;;;;;18.13;14.90;;;;;;;6.42;92.82;101884.09;681501;28;903;-53
2021/10/11 00:33:13;;;;;;;17.15;14.13;;;;;;;6.45;92.64;101879.03;681292;28;1113;-53
2021/10/11 00:33:34;;;;;;;17.65;14.20;;;;;;;6.47;92.83;101879.06;681805;28;1252;-52
2021/10/11 00:33:56;;;;;;;17.63;14.37;;;;;;;6.48;92.46;101884.31;682840;28;5175;-52
2021/10/11 00:34:16;;;;;;;17.17;14.02;;;;;;;6.46;92.56;101872.97;680162;28;1187;-55
2021/10/11 00:34:37;;;;;;;16.98;13.85;;;;;;;6.46;92.38;101872.09;681878;28;1243;-54
2021/10/11 00:34:58;;;;;;;17.45;14.27;;;;;;;6.47;92.61;101869.53;681531;28;1435;-52
2021/10/11 00:35:18;;;;;;;15.60;13.87;;;;;;;6.49;92.22;101872.19;682107;28;1103;-54
2021/10/11 00:35:38;;;;;;;15.83;13.77;;;;;;;6.42;92.49;101881.50;681101;28;1306;-54
2021/10/11 00:35:59;;;;;;;15.97;14.10;;;;;;;6.40;92.80;101874.53;681843;28;1252;-55
2021/10/11 00:36:19;;;;;;;16.48;14.18;;;;;;;6.39;93.10;101873.63;681835;28;1903;-53
2021/10/11 00:36:39;;;;;;;18.03;14.23;;;;;;;6.38;92.71;101874.44;681690;28;1275;-56
2021/10/11 00:37:00;;;;;;;17.73;14.80;;;;;;;6.33;92.71;101878.63;681209;28;4370;-55
2021/10/11 00:37:20;;;;;;;17.57;14.73;;;;;;;6.33;92.69;101870.84;681635;28;1405;-54
2021/10/11 00:37:40;;;;;;;15.80;13.83;;;;;;;6.38;92.23;101870.97;678018;28;1404;-53
2021/10/11 00:38:01;;;;;;;16.30;13.43;;;;;;;6.45;91.72;101871.22;677968;28;1424;-54
2021/10/11 00:38:21;;;;;;;15.77;13.40;;;;;;;6.55;91.31;101871.50;681171;28;1152;-52
2021/10/11 00:38:41;;;;;;;15.45;13.20;;;;;;;6.61;90.90;101869.09;678162;28;1127;-54
2021/10/11 00:39:02;;;;;;;15.13;13.03;;;;;;;6.62;91.49;101876.06;681096;28;3604;-52
2021/10/11 00:39:23;;;;;;;16.52;13.52;;;;;;;6.56;91.57;101868.97;680902;28;1166;-54
2021/10/11 00:39:43;;;;;;;17.67;14.03;;;;;;;6.50;92.03;101867.91;681617;28;1061;-55
2021/10/11 00:40:06;;;;;;;17.52;14.52;;;;;;;6.43;92.55;101867.69;681749;28;4353;-54
2021/10/11 00:40:26;;;;;;;16.77;14.43;;;;;;;6.38;93.09;101866.66;680705;28;1127;-54
2021/10/11 00:40:47;;;;;;;16.13;14.33;;;;;;;6.35;92.91;101863.09;681164;28;1443;-51
2021/10/11 00:41:07;;;;;;;16.10;13.82;;;;;;;6.32;92.76;101869.06;681717;28;1018;-53
2021/10/11 00:41:31;;;;;;;18.57;14.40;;;;;;;6.29;92.85;101864.66;682207;28;1064;-55
2021/10/11 00:41:51;;;;;;;16.98;13.88;;;;;;;6.23;92.98;101863.56;681359;28;1112;-55
2021/10/11 00:42:11;;;;;;;16.50;14.27;;;;;;;6.17;93.76;101863.38;679465;28;1398;-56
2021/10/11 00:42:33;;;;;;;17.45;14.55;;;;;;;6.12;94.16;101865.84;682058;28;1105;-51
2021/10/11 00:42:53;;;;;;;17.55;14.30;;;;;;;6.07;94.78;101865.66;681321;28;4801;-51
2021/10/11 00:43:14;;;;;;;18.02;14.48;;;;;;;6.02;94.50;101863.75;681237;28;3109;-53
2021/10/11 00:43:34;;;;;;;18.33;14.63;;;;;;;6.00;94.45;101870.63;679763;28;1123;-52
2021/10/11 00:43:55;;;;;;;17.60;15.00;;;;;;;5.98;94.79;101873.13;680574;28;1235;-53
2021/10/11 00:44:15;;;;;;;18.53;14.60;;;;;;;6.00;94.92;101873.22;684205;28;1113;-54
2021/10/11 00:44:36;;;;;;;18.00;14.82;;;;;;;6.02;94.73;101869.81;683293;28;1294;-54
2021/10/11 00:44:56;;;;;;;19.60;15.20;;;;;;;6.05;94.10;101864.75;682427;28;1223;-55
2021/10/11 00:45:16;;;;;;;17.90;14.60;;;;;;;6.13;93.62;101868.47;681891;28;974;-52
2021/10/11 00:45:37;;;;;;;16.30;14.40;;;;;;;6.19;93.84;101870.41;681607;28;1295;-56
2021/10/11 00:45:57;;;;;;;18.05;14.65;;;;;;;6.21;93.11;101870.44;681722;28;4342;-55
2021/10/11 00:46:17;;;;;;;19.47;14.90;;;;;;;6.22;93.57;101867.03;680670;28;2324;-55
2021/10/11 00:46:38;;;;;;;19.53;15.57;;;;;;;6.24;93.67;101875.72;680861;28;1119;-53
2021/10/11 00:46:58;;;;;;;21.27;16.75;;;;;;;6.24;93.83;101870.53;682256;28;1326;-55
2021/10/11 00:47:19;;;;;;;21.23;17.13;;;;;;;6.24;93.45;101871.41;681763;28;1277;-55
2021/10/11 00:47:41;;;;;;;21.45;17.08;;;;;;;6.25;93.26;101869.72;681481;28;1026;-52
2021/10/11 00:48:02;;;;;;;19.42;15.77;;;;;;;6.25;93.61;101870.56;682314;28;999;-51
2021/10/11 00:48:22;;;;;;;20.77;16.65;;;;;;;6.26;93.38;101874.06;684190;28;1082;-52
2021/10/11 00:48:43;;;;;;;20.73;16.57;;;;;;;6.27;93.00;101865.44;683884;28;952;-53
2021/10/11 00:49:03;;;;;;;20.40;16.40;;;;;;;6.27;92.56;101861.13;684438;28;4330;-55
2021/10/11 00:49:24;;;;;;;19.38;16.02;;;;;;;6.29;92.43;101867.25;683517;28;2127;-53
2021/10/11 00:49:44;;;;;;;19.70;15.60;;;;;;;6.34;92.44;101867.41;684824;28;1276;-51
2021/10/11 00:50:06;;;;;;;20.42;15.93;;;;;;;6.39;91.77;101873.63;684092;28;1154;-55
2021/10/11 00:50:26;;;;;;;19.33;16.40;;;;;;;6.43;91.44;101862.50;683937;28;1493;-54
2021/10/11 00:50:48;;;;;;;18.60;16.00;;;;;;;6.43;91.54;101870.28;684114;28;898;-56
2021/10/11 00:51:08;;;;;;;20.23;16.70;;;;;;;6.42;91.57;101870.25;684970;28;1054;-53
2021/10/11 00:51:29;;;;;;;19.53;16.30;;;;;;;6.42;91.15;101870.25;684277;28;1057;-53
2021/10/11 00:51:49;;;;;;;19.42;15.52;;;;;;;6.43;91.40;101867.69;683974;28;4519;-53
2021/10/11 00:52:12;;;;;;;19.57;15.87;;;;;;;6.47;91.18;101863.47;681678;28;1017;-53
2021/10/11 00:52:32;;;;;;;18.25;15.70;;;;;;;6.50;91.06;101873.09;681574;28;3866;-53
2021/10/11 00:52:52;;;;;;;18.83;14.80;;;;;;;6.52;90.21;101864.50;684026;28;3546;-52
2021/10/11 00:53:15;;;;;;;18.42;14.98;;;;;;;6.61;89.99;101866.50;684500;28;1024;-54
2021/10/11 00:53:35;;;;;;;17.02;14.38;;;;;;;6.70;89.13;101866.81;684619;28;1162;-53
2021/10/11 00:53:56;;;;;;;15.85;13.57;;;;;;;6.85;88.98;101866.34;684910;28;1285;-53
2021/10/11 00:54:17;;;;;;;16.67;13.77;;;;;;;6.94;88.51;101869.22;684399;28;1388;-56
2021/10/11 00:54:38;;;;;;;17.10;13.57;;;;;;;6.90;88.83;101869.09;683468;28;948;-53
2021/10/11 00:54:59;;;;;;;16.50;13.75;;;;;;;6.78;90.26;101867.91;684055;28;4308;-54
2021/10/11 00:55:20;;;;;;;16.88;14.30;;;;;;;6.69;89.60;101864.13;685441;28;1368;-53
2021/10/11 00:55:40;;;;;;;16.27;14.27;;;;;;;6.67;89.60;101863.22;683105;28;2543;-53
2021/10/11 00:56:01;;;;;;;16.65;13.95;;;;;;;6.69;89.41;101870.22;684410;28;1438;-55
2021/10/11 00:56:21;;;;;;;16.55;13.55;;;;;;;6.73;88.91;101866.88;684304;28;1977;-54
2021/10/11 00:56:42;;;;;;;16.80;13.47;;;;;;;6.83;88.94;101868.03;683250;28;1657;-52
2021/10/11 00:57:02;;;;;;;17.92;13.75;;;;;;;6.90;88.61;101877.78;681593;28;1308;-51
2021/10/11 00:57:23;;;;;;;16.40;14.10;;;;;;;6.90;88.62;101869.09;681785;28;1077;-53
2021/10/11 00:57:43;;;;;;;18.08;14.50;;;;;;;6.80;89.33;101867.97;680868;28;1057;-53
2021/10/11 00:58:04;;;;;;;18.07;14.50;;;;;;;6.67;89.83;101871.88;681719;28;4318;-54
2021/10/11 00:58:24;;;;;;;18.77;14.50;;;;;;;6.56;90.56;101874.16;681218;28;1017;-51
2021/10/11 00:58:44;;;;;;;18.27;14.97;;;;;;;6.49;90.70;101877.38;681720;28;3746;-55
2021/10/11 00:59:05;;;;;;;17.40;14.52;;;;;;;6.46;91.13;101879.91;681338;28;1186;-51
2021/10/11 00:59:25;;;;;;;17.87;14.67;;;;;;;6.41;92.25;101874.56;684431;28;1229;-52
2021/10/11 00:59:45;;;;;;;19.30;15.40;;;;;;;6.40;92.30;101874.53;684359;28;1429;-52
2021/10/11 01:00:06;;;;;;;18.33;14.67;;;;;;;6.39;92.05;101865.81;684956;28;1124;-56
2021/10/11 01:00:27;;;;;;;16.52;14.20;;;;;;;6.43;91.37;101872.88;684493;28;1074;-53
2021/10/11 01:00:47;;;;;;;16.70;13.73;;;;;;;6.49;91.21;101869.59;683859;28;925;-54
2021/10/11 01:01:08;;;;;;;15.53;13.43;;;;;;;6.53;90.34;101867.97;684119;28;4584;-53
2021/10/11 01:01:28;;;;;;;16.48;13.63;;;;;;;6.55;90.26;101880.19;684455;28;1132;-52
2021/10/11 01:01:48;;;;;;;16.40;13.53;;;;;;;6.59;90.21;101878.56;683460;28;3954;-53
2021/10/11 01:02:09;;;;;;;17.20;13.47;;;;;;;6.61;90.43;101879.50;681903;28;985;-56
2021/10/11 01:02:29;;;;;;;16.67;14.02;;;;;;;6.60;90.42;101876.00;681854;28;1461;-52
2021/10/11 01:02:50;;;;;;;18.93;14.83;;;;;;;6.59;90.82;101879.47;678442;28;1675;-52
2021/10/11 01:03:10;;;;;;;18.52;14.80;;;;;;;6.58;91.21;101877.69;679471;29;1074;-52
2021/10/11 01:03:30;;;;;;;19.17;15.00;;;;;;;6.55;91.65;101875.00;680166;29;1120;-54
2021/10/11 01:03:51;;;;;;;17.95;14.85;;;;;;;6.51;91.66;101878.34;678102;28;4850;-54
2021/10/11 01:04:13;;;;;;;18.23;14.93;;;;;;;6.51;91.94;101874.84;681934;28;1129;-54
2021/10/11 01:04:33;;;;;;;18.85;14.88;;;;;;;6.53;91.92;101868.84;681669;28;1327;-52
2021/10/11 01:04:53;;;;;;;18.50;14.73;;;;;;;6.54;91.64;101875.81;683768;28;3562;-55
2021/10/11 01:05:14;;;;;;;17.47;14.57;;;;;;;6.53;90.94;101873.19;683674;28;1311;-53
2021/10/11 01:05:34;;;;;;;18.08;14.73;;;;;;;6.55;90.97;101876.69;684288;28;1449;-52
2021/10/11 01:05:55;;;;;;;18.00;14.30;;;;;;;6.59;90.84;101873.34;683689;28;1307;-53
2021/10/11 01:06:16;;;;;;;16.17;13.57;;;;;;;6.58;90.03;101872.47;682359;28;1235;-56
2021/10/11 01:06:39;;;;;;;15.83;13.80;;;;;;;6.61;90.60;101871.69;681292;28;1223;-52
2021/10/11 01:06:59;;;;;;;17.08;13.82;;;;;;;6.63;90.56;101872.63;680988;28;5171;-55
2021/10/11 01:07:20;;;;;;;17.13;14.47;;;;;;;6.59;90.86;101873.34;682176;28;1053;-52
2021/10/11 01:07:40;;;;;;;16.88;14.93;;;;;;;6.53;91.39;101868.84;681603;28;1123;-56
2021/10/11 01:08:01;;;;;;;18.87;14.87;;;;;;;6.49;91.95;101874.78;681341;28;3315;-53
2021/10/11 01:08:21;;;;;;;18.20;14.57;;;;;;;6.48;91.48;101871.31;682270;28;1421;-53
2021/10/11 01:08:42;;;;;;;17.52;13.98;;;;;;;6.54;91.26;101880.16;681371;28;1299;-52
2021/10/11 01:09:04;;;;;;;17.70;14.37;;;;;;;6.55;91.23;101879.28;681020;28;1060;-55
2021/10/11 01:09:25;;;;;;;18.80;14.85;;;;;;;6.53;91.46;101875.78;682726;28;1041;-54
2021/10/11 01:09:45;;;;;;;17.53;15.03;;;;;;;6.45;92.03;101876.44;681558;28;1447;-54
2021/10/11 01:10:05;;;;;;;18.20;15.03;;;;;;;6.38;93.29;101878.75;681100;28;4290;-55
2021/10/11 01:10:26;;;;;;;20.20;15.52;;;;;;;6.31;93.23;101880.28;684276;28;1077;-51
2021/10/11 01:10:47;;;;;;;20.63;16.27;;;;;;;6.26;93.00;101879.28;684488;28;1075;-53
2021/10/11 01:11:09;;;;;;;20.23;15.88;;;;;;;6.24;93.72;101875.72;683197;28;3409;-56
2021/10/11 01:11:29;;;;;;;19.50;15.52;;;;;;;6.23;93.54;101873.94;684542;28;1177;-52
2021/10/11 01:11:50;;;;;;;19.77;15.68;;;;;;;6.24;93.13;101875.72;684242;28;1278;-56
2021/10/11 01:12:10;;;;;;;20.05;16.30;;;;;;;6.25;93.22;101870.56;684183;28;1424;-55
2021/10/11 01:12:31;;;;;;;20.07;16.17;;;;;;;6.26;93.29;101874.06;685192;28;1193;-52
2021/10/11 01:12:51;;;;;;;19.58;15.85;;;;;;;6.24;93.55;101875.72;682938;28;4523;-54
2021/10/11 01:13:11;;;;;;;18.83;15.70;;;;;;;6.23;93.24;101874.84;678493;29;1323;-52
2021/10/11 01:13:32;;;;;;;17.90;15.57;;;;;;;6.21;93.58;101875.63;678975;29;1216;-52
2021/10/11 01:13:52;;;;;;;19.63;15.83;;;;;;;6.19;93.88;101877.28;676082;29;1192;-53
2021/10/11 01:14:13;;;;;;;20.05;15.98;;;;;;;6.17;93.81;101872.03;676794;29;3451;-56
2021/10/11 01:14:33;;;;;;;19.67;15.93;;;;;;;6.18;94.00;101868.63;675275;29;1236;-53
2021/10/11 01:14:53;;;;;;;19.00;15.87;;;;;;;6.18;94.24;101875.53;676009;29;1179;-52
2021/10/11 01:15:14;;;;;;;20.67;16.10;;;;;;;6.17;94.69;101868.56;678793;29;1033;-54
2021/10/11 01:15:34;;;;;;;19.23;15.87;;;;;;;6.13;94.37;101870.19;679464;29;1090;-55
2021/10/11 01:15:55;;;;;;;19.42;16.17;;;;;;;6.11;94.86;101875.31;678059;28;5227;-55
2021/10/11 01:16:15;;;;;;;19.10;16.10;;;;;;;6.11;95.46;101875.31;679242;28;1124;-53
2021/10/11 01:16:36;;;;;;;19.97;16.50;;;;;;;6.11;95.18;101869.25;679026;29;1964;-55
2021/10/11 01:16:56;;;;;;;18.83;16.20;;;;;;;6.10;95.51;101868.34;679105;29;1022;-54
2021/10/11 01:17:17;;;;;;;20.58;16.88;;;;;;;6.10;95.50;101870.09;681340;28;3574;-55
2021/10/11 01:17:37;;;;;;;21.38;16.50;;;;;;;6.12;95.23;101874.50;681600;28;1303;-56
2021/10/11 01:17:57;;;;;;;20.20;15.90;;;;;;;6.12;94.45;101869.31;681913;28;1238;-55
2021/10/11 01:18:18;;;;;;;19.33;16.00;;;;;;;6.14;94.59;101865.03;680644;28;1491;-53
2021/10/11 01:18:41;;;;;;;20.53;16.10;;;;;;;6.15;94.13;101871.13;681536;28;958;-52
2021/10/11 01:19:01;;;;;;;20.38;16.02;;;;;;;6.17;94.46;101871.16;682805;28;4531;-51
2021/10/11 01:19:22;;;;;;;18.87;15.73;;;;;;;6.14;94.32;101865.03;681722;28;1101;-53
2021/10/11 01:19:49;;;;;;;18.67;15.63;;;;;;;6.09;95.01;101866.63;680513;28;1056;-52
2021/10/11 01:20:10;;;;;;;20.90;16.50;;;;;;;6.05;95.36;101859.56;681734;28;1054;-56
2021/10/11 01:20:30;;;;;;;20.23;16.87;;;;;;;6.02;95.28;101867.22;679097;28;2461;-53
2021/10/11 01:20:51;;;;;;;20.52;16.48;;;;;;;6.01;95.29;101870.66;678640;28;1129;-52
2021/10/11 01:21:11;;;;;;;21.63;16.70;;;;;;;6.02;95.34;101864.63;680472;28;1499;-55
2021/10/11 01:21:32;;;;;;;20.35;16.75;;;;;;;6.06;94.76;101869.09;681883;28;943;-55
2021/10/11 01:21:52;;;;;;;19.53;16.13;;;;;;;6.10;94.52;101868.34;680455;28;4487;-51
2021/10/11 01:22:12;;;;;;;20.00;16.17;;;;;;;6.14;94.53;101867.63;681755;28;1259;-53
2021/10/11 01:22:39;;;;;;;19.87;16.20;;;;;;;6.20;94.37;101866.06;682399;28;1033;-55
2021/10/11 01:22:59;;;;;;;19.15;16.05;;;;;;;6.20;94.68;101869.53;682194;28;1123;-51
2021/10/11 01:23:25;;;;;;;19.80;16.33;;;;;;;6.18;94.51;101867.75;681939;28;1915;-52
2021/10/11 01:23:45;;;;;;;19.98;16.35;;;;;;;6.18;94.16;101871.22;681456;28;2103;-52
2021/10/11 01:24:06;;;;;;;18.30;15.70;;;;;;;6.20;94.63;101868.66;681965;28;1339;-54
2021/10/11 01:24:26;;;;;;;19.45;15.90;;;;;;;6.18;94.44;101870.34;682176;28;1269;-55
2021/10/11 01:24:47;;;;;;;21.03;16.53;;;;;;;6.18;94.58;101865.16;681551;28;1073;-54
2021/10/11 01:25:10;;;;;;;21.98;16.52;;;;;;;6.17;94.51;101868.56;677446;28;4739;-54
2021/10/11 01:25:31;;;;;;;21.05;16.60;;;;;;;6.18;94.03;101870.34;679373;28;1057;-52
2021/10/11 01:25:52;;;;;;;19.98;16.42;;;;;;;6.17;94.64;101869.44;678303;28;960;-53
2021/10/11 01:26:13;;;;;;;21.02;16.55;;;;;;;6.14;95.42;101875.41;679068;28;805;-53
2021/10/11 01:26:35;;;;;;;21.33;17.13;;;;;;;6.12;96.19;101871.91;679161;28;1992;-51
2021/10/11 01:26:56;;;;;;;22.08;17.52;;;;;;;6.11;96.20;101871.84;680095;28;1931;-54
2021/10/11 01:27:16;;;;;;;21.85;17.52;;;;;;;6.11;96.65;101866.66;677803;29;1361;-56
2021/10/11 01:27:37;;;;;;;21.07;17.73;;;;;;;6.10;96.98;101868.34;678930;29;1461;-51
2021/10/11 01:27:57;;;;;;;21.57;17.67;;;;;;;6.11;97.09;101869.25;678170;28;4631;-55
2021/10/11 01:28:18;;;;;;;22.10;17.80;;;;;;;6.12;97.06;101871.03;679646;28;1045;-52
2021/10/11 01:28:39;;;;;;;21.85;18.00;;;;;;;6.11;96.75;101871.84;678720;28;1190;-53
2021/10/11 01:28:59;;;;;;;22.10;17.98;;;;;;;6.11;96.58;101872.72;679774;28;1081;-51
2021/10/11 01:29:19;;;;;;;21.77;17.67;;;;;;;6.09;96.89;101877.00;679483;29;1089;-51
2021/10/11 01:29:40;;;;;;;21.75;17.60;;;;;;;6.08;97.07;101872.63;677826;28;3319;-53
2021/10/11 01:30:02;;;;;;;21.23;17.20;;;;;;;6.07;97.50;101877.78;679374;28;1041;-54
2021/10/11 01:30:23;;;;;;;22.13;17.30;;;;;;;6.05;97.76;101869.94;678935;28;1474;-52
2021/10/11 01:30:43;;;;;;;21.40;17.40;;;;;;;6.08;97.60;101875.22;678545;28;1497;-53
2021/10/11 01:31:04;;;;;;;20.88;18.00;;;;;;;6.08;97.52;101875.22;677779;28;4411;-51
2021/10/11 01:31:24;;;;;;;21.87;18.50;;;;;;;6.09;97.47;101870.91;678312;29;1318;-51
2021/10/11 01:31:45;;;;;;;23.95;18.45;;;;;;;6.09;97.25;101874.41;678682;28;915;-52
2021/10/11 01:32:06;;;;;;;22.08;17.23;;;;;;;6.09;97.04;101871.81;678825;28;1177;-52
2021/10/11 01:32:26;;;;;;;21.45;16.70;;;;;;;6.12;96.77;101869.31;679678;28;931;-54
2021/10/11 01:32:47;;;;;;;20.97;16.87;;;;;;;6.12;97.20;101866.72;678656;28;3159;-51
2021/10/11 01:33:09;;;;;;;22.23;17.58;;;;;;;6.13;96.67;101873.69;678188;28;3655;-55
2021/10/11 01:33:29;;;;;;;22.60;17.60;;;;;;;6.16;96.10;101874.59;677320;29;1445;-55
2021/10/11 01:33:49;;;;;;;19.10;16.20;;;;;;;6.20;95.84;101868.66;677900;28;4645;-51
2021/10/11 01:34:11;;;;;;;20.53;16.67;;;;;;;6.20;96.38;101869.53;680239;28;1137;-52
2021/10/11 01:34:31;;;;;;;19.88;16.90;;;;;;;6.22;95.37;101869.63;679451;29;1048;-52
2021/10/11 01:34:52;;;;;;;19.43;16.07;;;;;;;6.28;94.83;101867.19;678295;28;1287;-55
2021/10/11 01:35:14;;;;;;;20.88;16.23;;;;;;;6.34;94.89;101867.41;679639;29;1200;-53
2021/10/11 01:35:35;;;;;;;21.80;16.90;;;;;;;6.35;94.57;101869.16;679048;28;1026;-53
2021/10/11 01:35:55;;;;;;;21.88;17.00;;;;;;;6.37;94.72;101870.09;677958;28;3415;-51
2021/10/11 01:36:15;;;;;;;23.23;18.47;;;;;;;6.34;95.41;101869.09;678823;28;1264;-52
2021/10/11 01:36:36;;;;;;;25.50;19.98;;;;;;;6.30;95.99;101869.03;680965;28;1966;-53
2021/10/11 01:36:56;;;;;;;27.20;20.00;;;;;;;6.27;96.02;101871.53;681123;28;4467;-55
2021/10/11 01:37:17;;;;;;;27.88;19.80;;;;;;;6.26;96.66;101868.88;682033;28;1426;-53
2021/10/11 01:37:38;;;;;;;26.77;20.40;;;;;;;6.25;97.04;101874.91;681537;28;1053;-56
2021/10/11 01:37:59;;;;;;;28.00;21.75;;;;;;;6.22;96.72;101867.88;681836;28;1374;-54